Lakehurst NAES /Maxfield Field
KNEL : rendu visible

Aérodrome :











RETROUVEZ-NOUS SUR...

 
LOGIN :

S'inscrire | Disclaimer

   EN    FR    IT 

 









Légende :    VFR   VFR Marginal   IFR   IFR Intensif   IFR Très Intensif
Visi : 
Plafond : 
>= 8 km
>= 3000ft
5 à 8 km
1000 à 3000 ft
1500m à 5 km
500 à 1000 ft
800 à 1500m
200 à 500 ft
< 800m
< 200 ft
Symboles :   Orages  Brouillard  Fortes neiges  Fortes précipitations  Vent > 20 kt






- Altitude de l'aérodrome : 101 ft
- Code IATA : NEL


KNEL - Lakehurst NAES /Maxfield Field

DERNIER METAR :
  • 190300Z AUTO 24014G21KT 10SM OVC010 03/02 A2984 RMK AO2 UPB0204E0213 SLP105 P0000 60027 T00330022 56039 $

METARs EXPIRÉS :
  • 190221Z AUTO 24013G20KT 10SM SCT009 BKN014 OVC029 03/02 A2987 RMK AO2 UPB04E13 P0000 T00280017 $
  • 190200Z AUTO 22010KT 10SM FEW009 FEW012 OVC028 03/02 A2990 RMK AO2 RAE0130UPB0130E0142 SLP124 P0001 T00280017 $
  • 190149Z AUTO 21010KT 10SM OVC028 02/02 A2991 RMK AO2 RAE30UPB30E42 PRESFR P0001 T00220017 FZRANO $
  • 190127Z AUTO 21008KT 10SM -RA SCT007 OVC030 02/01 A2993 RMK AO2 P0001 T00170011 FZRANO $
  • 190111Z AUTO 21006KT 7SM -RA SCT009 BKN024 OVC036 01/01 A2995 RMK AO2 P0001 T00110011 FZRANO $
  • 190100Z AUTO 22005KT 4SM RA BR FEW011 BKN016 OVC042 01/01 A2996 RMK AO2 SLP146 P0011 T00110006 FZRANO $
  • 190038Z AUTO 22006KT 5SM RA BR FEW009 OVC016 01/01 A2999 RMK AO2 P0006 T00110006 FZRANO $

TAF N/A



MET'MAP, la Météo Aéronautique d'un coup d'oeil ! - Copyright ORBIFLY Décembre 2007 - Disclaimer

ORBIFLY MET'MAP TEAM :

Programmation & Développement : Alexandra Zaïnal
Sur une idée originale de : Baudouin d'Aumeries
Assistance à la programmation : Marc-Olivier Méhu
Soutien technique & logistique : Manuel Goepfert

Contact : metmap@orbifly.com




SOURCES & CREDITS :

   NOAA       Earth
Advisory